Time;durP1;ratioP1;P1;durP2;ratioP2;P2;SDS_P1;SDS_P2;PMS_P1;PMS_P2;Temp;Humidity;BMP_temperature;BMP_pressure;BME280_temperature;BME280_humidity;BME280_pressure;Samples;Min_cycle;Max_cycle;Signal;HPM_P1;HPM_P2
2021/09/22 00:02:13;;;;;;;1.52;0.60;;;;;;;;;;5048003;28;20678;-57
2021/09/22 00:04:39;;;;;;;0.88;0.40;;;;;;;;;;5049024;28;20058;-58
2021/09/22 00:07:05;;;;;;;1.27;0.40;;;;;;;;;;5048484;28;20077;-56
2021/09/22 00:09:31;;;;;;;2.85;0.40;;;;;;;;;;5047159;28;20069;-57
2021/09/22 00:11:57;;;;;;;0.65;0.38;;;;;;;;;;5049133;28;20128;-57
2021/09/22 00:14:23;;;;;;;1.85;0.30;;;;;;;;;;5048331;28;20137;-55
2021/09/22 00:16:48;;;;;;;2.92;0.40;;;;;;;;;;5046983;28;20041;-56
2021/09/22 00:19:14;;;;;;;1.20;0.32;;;;;;;;;;5050068;28;20056;-56
2021/09/22 00:21:40;;;;;;;0.98;0.40;;;;;;;;;;5047822;28;20047;-57
2021/09/22 00:24:06;;;;;;;1.08;0.40;;;;;;;;;;5048370;28;20028;-56
2021/09/22 00:26:32;;;;;;;1.73;0.40;;;;;;;;;;5046830;28;20051;-56
2021/09/22 00:28:58;;;;;;;4.68;0.40;;;;;;;;;;5049513;28;20074;-55
2021/09/22 00:31:24;;;;;;;9.57;0.50;;;;;;;;;;5048222;28;20032;-56
2021/09/22 00:33:50;;;;;;;1.20;0.30;;;;;;;;;;5049211;28;20036;-56
2021/09/22 00:36:16;;;;;;;2.58;0.50;;;;;;;;;;5048890;28;20037;-56
2021/09/22 00:38:42;;;;;;;1.02;0.40;;;;;;;;;;5048337;28;20041;-55
2021/09/22 00:41:08;;;;;;;2.67;0.40;;;;;;;;;;5048817;28;20567;-55
2021/09/22 00:43:33;;;;;;;2.58;0.47;;;;;;;;;;5047106;28;20094;-55
2021/09/22 00:46:08;;;;;;;2.22;0.63;;;;;;;;;;5048575;28;20044;-57
2021/09/22 00:48:35;;;;;;;0.77;0.40;;;;;;;;;;5047293;28;20028;-56
2021/09/22 00:51:03;;;;;;;0.75;0.30;;;;;;;;;;5048620;28;20043;-57
2021/09/22 00:53:29;;;;;;;2.72;0.50;;;;;;;;;;5047497;28;20106;-57
2021/09/22 00:55:55;;;;;;;1.45;0.30;;;;;;;;;;5049863;28;20041;-57
2021/09/22 00:58:21;;;;;;;1.60;0.45;;;;;;;;;;5046310;28;20048;-57
2021/09/22 01:00:47;;;;;;;5.80;0.50;;;;;;;;;;5031957;28;20047;-57
2021/09/22 01:03:13;;;;;;;0.88;0.32;;;;;;;;;;5048543;28;20156;-56
2021/09/22 01:05:39;;;;;;;3.38;0.40;;;;;;;;;;5049873;28;20130;-55
2021/09/22 01:08:07;;;;;;;2.13;0.40;;;;;;;;;;5048622;28;20366;-55
2021/09/22 01:10:33;;;;;;;3.85;0.50;;;;;;;;;;5049113;28;20044;-55
2021/09/22 01:12:59;;;;;;;1.02;0.30;;;;;;;;;;5048407;28;20639;-56
2021/09/22 01:15:26;;;;;;;1.65;0.40;;;;;;;;;;5047896;28;20566;-55
2021/09/22 01:17:52;;;;;;;1.95;0.40;;;;;;;;;;5047933;28;20044;-56
2021/09/22 01:20:18;;;;;;;1.88;0.68;;;;;;;;;;5048709;28;20037;-55
2021/09/22 01:22:44;;;;;;;2.45;0.45;;;;;;;;;;5048425;28;20059;-56
2021/09/22 01:25:11;;;;;;;3.60;0.70;;;;;;;;;;5049880;28;20060;-56
2021/09/22 01:27:47;;;;;;;1.67;0.50;;;;;;;;;;5045531;28;20250;-56
2021/09/22 01:30:13;;;;;;;1.85;0.50;;;;;;;;;;5046644;28;20808;-55
2021/09/22 01:32:47;;;;;;;1.55;0.52;;;;;;;;;;5048862;28;20045;-57
2021/09/22 01:35:12;;;;;;;2.75;0.60;;;;;;;;;;5048480;28;20032;-54
2021/09/22 01:37:38;;;;;;;0.57;0.30;;;;;;;;;;5033109;28;20048;-56
2021/09/22 01:40:04;;;;;;;2.40;0.45;;;;;;;;;;5051071;28;20067;-57
2021/09/22 01:42:30;;;;;;;5.85;0.63;;;;;;;;;;5042306;28;20072;-55
2021/09/22 01:44:56;;;;;;;6.88;0.60;;;;;;;;;;5033740;28;20160;-56
2021/09/22 01:47:22;;;;;;;0.98;0.35;;;;;;;;;;5033889;28;20043;-54
2021/09/22 01:49:48;;;;;;;0.68;0.30;;;;;;;;;;5034238;28;20048;-56
2021/09/22 01:52:14;;;;;;;0.63;0.30;;;;;;;;;;5034147;28;20061;-56
2021/09/22 01:54:39;;;;;;;1.08;0.38;;;;;;;;;;5032543;28;20037;-55
2021/09/22 01:57:05;;;;;;;0.60;0.30;;;;;;;;;;5034274;28;20043;-55
2021/09/22 01:59:31;;;;;;;2.10;0.50;;;;;;;;;;5015419;28;20125;-56
2021/09/22 02:01:57;;;;;;;1.23;0.40;;;;;;;;;;5034928;28;20144;-55
2021/09/22 02:04:23;;;;;;;2.22;0.40;;;;;;;;;;5021995;28;20076;-55
2021/09/22 02:06:48;;;;;;;2.90;0.60;;;;;;;;;;5033344;28;20047;-56
2021/09/22 02:09:14;;;;;;;1.42;0.50;;;;;;;;;;5034036;28;20072;-56
2021/09/22 02:11:40;;;;;;;1.08;0.40;;;;;;;;;;5032446;28;20049;-56
2021/09/22 02:14:06;;;;;;;1.23;0.40;;;;;;;;;;5015615;28;20042;-56
2021/09/22 02:16:31;;;;;;;0.98;0.40;;;;;;;;;;5032013;28;20046;-57
2021/09/22 02:18:57;;;;;;;1.67;0.40;;;;;;;;;;5034356;28;20053;-56
2021/09/22 02:21:23;;;;;;;1.73;0.45;;;;;;;;;;5034072;28;20067;-54
2021/09/22 02:23:49;;;;;;;1.35;0.40;;;;;;;;;;5033529;28;20038;-57
2021/09/22 02:26:15;;;;;;;1.85;0.40;;;;;;;;;;5034346;28;20095;-56
2021/09/22 02:28:41;;;;;;;4.35;0.50;;;;;;;;;;5035600;28;20040;-57
2021/09/22 02:31:06;;;;;;;2.92;0.50;;;;;;;;;;5034533;28;20462;-55
2021/09/22 02:33:32;;;;;;;4.32;0.60;;;;;;;;;;5035047;28;20049;-56
2021/09/22 02:35:58;;;;;;;1.35;0.40;;;;;;;;;;5033392;28;20409;-57
2021/09/22 02:38:24;;;;;;;2.15;0.60;;;;;;;;;;5032793;28;20045;-57
2021/09/22 02:40:50;;;;;;;1.48;0.40;;;;;;;;;;5033474;28;20040;-56
2021/09/22 02:43:17;;;;;;;3.92;0.70;;;;;;;;;;5049005;28;20505;-56
2021/09/22 02:45:42;;;;;;;1.08;0.40;;;;;;;;;;5049262;28;20045;-57
2021/09/22 02:48:08;;;;;;;2.70;0.40;;;;;;;;;;5047514;28;20393;-57
2021/09/22 02:50:34;;;;;;;2.70;0.75;;;;;;;;;;5047727;28;20766;-57
2021/09/22 02:53:00;;;;;;;3.13;0.80;;;;;;;;;;5023152;28;20124;-57
2021/09/22 02:55:25;;;;;;;1.77;0.50;;;;;;;;;;5049920;28;20120;-55
2021/09/22 02:57:51;;;;;;;2.22;0.70;;;;;;;;;;5051352;28;20040;-57
2021/09/22 03:00:17;;;;;;;1.88;0.60;;;;;;;;;;5050290;28;20037;-56
2021/09/22 03:02:43;;;;;;;3.83;1.38;;;;;;;;;;5047741;28;20048;-56
2021/09/22 03:05:10;;;;;;;4.03;1.30;;;;;;;;;;5049528;28;20041;-57
2021/09/22 03:07:35;;;;;;;2.50;0.80;;;;;;;;;;5047618;28;20182;-56
2021/09/22 03:10:01;;;;;;;4.15;0.73;;;;;;;;;;5037521;28;20044;-56
2021/09/22 03:12:27;;;;;;;5.03;0.55;;;;;;;;;;5050138;28;20146;-57
2021/09/22 03:14:54;;;;;;;3.20;0.70;;;;;;;;;;5050118;28;20039;-55
2021/09/22 03:17:21;;;;;;;3.90;0.77;;;;;;;;;;5048237;28;20036;-53
2021/09/22 03:19:46;;;;;;;2.10;0.65;;;;;;;;;;5049887;28;20297;-57
2021/09/22 03:22:12;;;;;;;2.72;0.60;;;;;;;;;;5048420;28;20033;-56
2021/09/22 03:24:38;;;;;;;1.88;0.50;;;;;;;;;;5047255;28;20040;-57
2021/09/22 03:27:04;;;;;;;1.15;0.40;;;;;;;;;;5048317;28;20044;-56
2021/09/22 03:29:29;;;;;;;2.47;0.55;;;;;;;;;;5048273;28;20098;-56
2021/09/22 03:31:55;;;;;;;1.60;0.50;;;;;;;;;;5051332;28;20068;-56
2021/09/22 03:34:21;;;;;;;1.88;0.60;;;;;;;;;;5047724;28;20055;-56
2021/09/22 03:36:47;;;;;;;1.48;0.43;;;;;;;;;;5047190;28;20523;-57
2021/09/22 03:39:13;;;;;;;1.80;0.52;;;;;;;;;;5049336;28;20696;-56
2021/09/22 03:41:39;;;;;;;2.55;0.60;;;;;;;;;;5048681;28;20109;-56
2021/09/22 03:44:05;;;;;;;2.03;0.50;;;;;;;;;;5050329;28;20037;-57
2021/09/22 03:46:31;;;;;;;2.92;0.75;;;;;;;;;;5047529;28;20044;-56
2021/09/22 03:48:56;;;;;;;1.80;0.73;;;;;;;;;;5049094;28;20032;-57
2021/09/22 03:51:24;;;;;;;2.47;0.60;;;;;;;;;;5050440;28;20044;-56
2021/09/22 03:53:50;;;;;;;2.05;0.50;;;;;;;;;;5049902;28;20518;-56
2021/09/22 03:56:16;;;;;;;1.85;0.60;;;;;;;;;;5047603;28;20036;-56
2021/09/22 03:58:42;;;;;;;2.90;0.70;;;;;;;;;;5046777;28;20043;-56
2021/09/22 04:01:08;;;;;;;5.40;0.90;;;;;;;;;;5047081;28;20045;-56
2021/09/22 04:03:33;;;;;;;2.25;0.60;;;;;;;;;;5047762;28;20044;-55
2021/09/22 04:05:59;;;;;;;4.55;0.75;;;;;;;;;;5046564;28;20033;-57
2021/09/22 04:08:25;;;;;;;2.13;0.70;;;;;;;;;;5046424;28;20109;-55
2021/09/22 04:10:51;;;;;;;2.88;0.80;;;;;;;;;;5050310;28;20064;-58
2021/09/22 04:13:17;;;;;;;3.15;0.80;;;;;;;;;;5048899;28;20047;-56
2021/09/22 04:15:42;;;;;;;3.08;0.73;;;;;;;;;;5048046;28;20540;-57
2021/09/22 04:18:08;;;;;;;5.82;0.93;;;;;;;;;;5046795;28;20055;-55
2021/09/22 04:20:34;;;;;;;3.30;0.95;;;;;;;;;;5047210;28;20177;-56
2021/09/22 04:23:00;;;;;;;3.10;0.90;;;;;;;;;;5049011;28;20496;-56
2021/09/22 04:25:26;;;;;;;2.92;0.90;;;;;;;;;;5047661;28;20064;-56
2021/09/22 04:27:52;;;;;;;5.60;1.00;;;;;;;;;;5047531;28;20036;-55
2021/09/22 04:30:18;;;;;;;4.03;0.70;;;;;;;;;;5049758;28;20390;-56
2021/09/22 04:32:44;;;;;;;3.05;0.80;;;;;;;;;;5029526;28;20045;-55
2021/09/22 04:35:09;;;;;;;4.00;1.13;;;;;;;;;;5047906;28;20037;-54
2021/09/22 04:37:37;;;;;;;3.60;0.95;;;;;;;;;;5046837;28;20033;-56
2021/09/22 04:40:05;;;;;;;4.65;1.08;;;;;;;;;;5048756;28;20040;-56
2021/09/22 04:42:30;;;;;;;5.97;1.25;;;;;;;;;;5047182;28;20061;-56
2021/09/22 04:44:56;;;;;;;4.75;1.15;;;;;;;;;;5048335;28;20059;-57
2021/09/22 04:47:22;;;;;;;3.47;1.17;;;;;;;;;;5045364;28;20128;-57
2021/09/22 04:49:48;;;;;;;5.38;1.10;;;;;;;;;;5048358;28;20159;-57
2021/09/22 04:52:14;;;;;;;7.15;1.25;;;;;;;;;;5046277;28;20144;-56
2021/09/22 04:54:39;;;;;;;4.93;1.30;;;;;;;;;;5047024;28;20037;-56
2021/09/22 04:57:05;;;;;;;3.03;1.05;;;;;;;;;;5046425;28;20036;-55
2021/09/22 04:59:31;;;;;;;6.07;2.08;;;;;;;;;;5046964;28;20064;-55
2021/09/22 05:01:57;;;;;;;7.45;1.88;;;;;;;;;;5047134;28;20036;-55
2021/09/22 05:04:23;;;;;;;5.95;1.70;;;;;;;;;;5047128;28;20049;-55
2021/09/22 05:06:48;;;;;;;6.45;1.60;;;;;;;;;;5045967;28;20066;-55
2021/09/22 05:09:14;;;;;;;4.05;1.20;;;;;;;;;;5049009;28;20122;-55
2021/09/22 05:11:43;;;;;;;4.07;1.17;;;;;;;;;;5046260;28;20049;-54
2021/09/22 05:14:08;;;;;;;3.40;1.10;;;;;;;;;;5047050;28;20040;-56
2021/09/22 05:16:34;;;;;;;5.13;1.30;;;;;;;;;;5047122;28;20044;-56
2021/09/22 05:19:00;;;;;;;4.80;1.30;;;;;;;;;;5047917;28;20115;-55
2021/09/22 05:21:26;;;;;;;3.38;1.15;;;;;;;;;;5048455;28;20172;-55
2021/09/22 05:23:52;;;;;;;5.68;1.30;;;;;;;;;;5050772;28;20045;-55
2021/09/22 05:26:19;;;;;;;3.85;1.20;;;;;;;;;;5047343;28;20040;-56
2021/09/22 05:28:44;;;;;;;3.70;1.05;;;;;;;;;;5046533;28;20045;-56
2021/09/22 05:31:10;;;;;;;6.35;1.27;;;;;;;;;;5047298;28;20035;-55
2021/09/22 05:33:36;;;;;;;3.83;1.20;;;;;;;;;;5046811;28;20080;-56
2021/09/22 05:36:02;;;;;;;5.72;1.20;;;;;;;;;;5048185;28;20633;-56
2021/09/22 05:38:28;;;;;;;3.97;0.93;;;;;;;;;;5046614;28;20043;-56
2021/09/22 05:40:54;;;;;;;5.15;1.08;;;;;;;;;;5048808;28;20029;-56
2021/09/22 05:43:19;;;;;;;3.53;0.93;;;;;;;;;;5046712;28;20084;-54
2021/09/22 05:45:45;;;;;;;4.35;1.40;;;;;;;;;;5048044;28;20049;-56
2021/09/22 05:48:11;;;;;;;4.70;1.00;;;;;;;;;;5049040;28;20041;-56
2021/09/22 05:50:37;;;;;;;3.10;0.90;;;;;;;;;;5028058;28;20045;-55
2021/09/22 05:53:03;;;;;;;3.63;1.00;;;;;;;;;;5047072;28;20049;-54
2021/09/22 05:55:29;;;;;;;4.75;1.10;;;;;;;;;;5046739;28;20449;-56
2021/09/22 05:57:54;;;;;;;7.45;1.00;;;;;;;;;;5047516;28;20040;-56
2021/09/22 06:00:20;;;;;;;3.78;1.00;;;;;;;;;;5047500;28;20059;-55
2021/09/22 06:02:46;;;;;;;2.28;0.77;;;;;;;;;;5047782;28;20026;-56
2021/09/22 06:05:12;;;;;;;2.60;0.80;;;;;;;;;;5046729;28;20473;-54
2021/09/22 06:07:38;;;;;;;3.17;0.70;;;;;;;;;;5046784;28;20361;-55
2021/09/22 06:10:04;;;;;;;2.50;0.73;;;;;;;;;;5046993;28;20037;-58
2021/09/22 06:12:30;;;;;;;2.15;0.80;;;;;;;;;;5047023;28;20052;-56
2021/09/22 06:14:56;;;;;;;3.10;0.70;;;;;;;;;;5046788;28;20060;-54
2021/09/22 06:17:22;;;;;;;3.30;0.70;;;;;;;;;;5046294;28;20060;-55
2021/09/22 06:19:47;;;;;;;2.47;0.68;;;;;;;;;;5046268;28;20662;-55
2021/09/22 06:22:13;;;;;;;3.05;0.60;;;;;;;;;;5050419;28;20052;-54
2021/09/22 06:24:40;;;;;;;2.30;0.70;;;;;;;;;;5051110;28;20043;-55
2021/09/22 06:27:06;;;;;;;1.58;0.50;;;;;;;;;;5051179;28;20401;-54
2021/09/22 06:29:31;;;;;;;3.20;0.60;;;;;;;;;;5050892;28;20047;-55
2021/09/22 06:31:57;;;;;;;3.35;0.63;;;;;;;;;;5050929;28;20054;-55
2021/09/22 06:34:23;;;;;;;3.95;0.60;;;;;;;;;;5049649;28;20496;-55
2021/09/22 06:36:49;;;;;;;1.42;0.50;;;;;;;;;;5048336;28;20467;-52
2021/09/22 06:39:15;;;;;;;4.40;0.77;;;;;;;;;;5049445;28;20558;-54
2021/09/22 06:41:41;;;;;;;2.05;0.60;;;;;;;;;;5049023;28;20037;-53
2021/09/22 06:44:07;;;;;;;2.55;0.82;;;;;;;;;;5051576;28;20036;-55
2021/09/22 06:46:33;;;;;;;3.15;0.57;;;;;;;;;;5048475;28;20036;-56
2021/09/22 06:48:58;;;;;;;1.77;0.55;;;;;;;;;;5049159;28;20045;-55
2021/09/22 06:51:24;;;;;;;1.33;0.43;;;;;;;;;;5034672;28;20036;-55
2021/09/22 06:53:50;;;;;;;3.30;0.93;;;;;;;;;;5050670;28;20120;-56
2021/09/22 06:56:16;;;;;;;2.08;0.52;;;;;;;;;;5049408;28;20037;-55
2021/09/22 06:58:42;;;;;;;3.25;0.50;;;;;;;;;;5047797;28;20049;-54
2021/09/22 07:01:08;;;;;;;7.82;0.90;;;;;;;;;;5049139;28;20041;-55
2021/09/22 07:03:34;;;;;;;1.77;0.60;;;;;;;;;;5050129;28;20663;-55
2021/09/22 07:05:59;;;;;;;3.67;0.88;;;;;;;;;;5046807;28;22001;-55
2021/09/22 07:08:25;;;;;;;2.22;0.60;;;;;;;;;;5049897;28;20045;-55
2021/09/22 07:10:51;;;;;;;3.03;0.70;;;;;;;;;;5049625;28;20044;-54
2021/09/22 07:13:20;;;;;;;1.77;0.60;;;;;;;;;;5049468;28;20127;-55
2021/09/22 07:15:46;;;;;;;2.22;0.50;;;;;;;;;;5049795;28;20414;-53
2021/09/22 07:18:15;;;;;;;1.98;0.60;;;;;;;;;;5049731;28;20036;-53
2021/09/22 07:20:41;;;;;;;2.45;0.65;;;;;;;;;;5051303;28;20063;-55
2021/09/22 07:23:07;;;;;;;2.60;0.60;;;;;;;;;;5049285;28;20040;-55
2021/09/22 07:25:33;;;;;;;1.83;0.52;;;;;;;;;;5019663;28;20033;-55
2021/09/22 07:27:59;;;;;;;3.58;0.90;;;;;;;;;;5048707;28;20449;-55
2021/09/22 07:30:25;;;;;;;3.53;0.77;;;;;;;;;;5047394;28;20036;-55
2021/09/22 07:32:50;;;;;;;2.97;0.70;;;;;;;;;;5047671;28;20044;-56
2021/09/22 07:35:17;;;;;;;2.47;0.65;;;;;;;;;;5049457;28;20132;-55
2021/09/22 07:37:43;;;;;;;1.60;0.60;;;;;;;;;;5048156;28;20032;-56
2021/09/22 07:40:09;;;;;;;3.65;0.70;;;;;;;;;;5048282;28;20032;-55
2021/09/22 07:42:35;;;;;;;2.53;0.60;;;;;;;;;;5047199;28;20045;-56
2021/09/22 07:45:02;;;;;;;3.05;0.68;;;;;;;;;;5048909;28;20033;-56
2021/09/22 07:47:27;;;;;;;2.05;0.60;;;;;;;;;;5046534;28;20211;-56
2021/09/22 07:49:53;;;;;;;6.57;0.95;;;;;;;;;;5048418;28;20032;-55
2021/09/22 07:52:19;;;;;;;4.20;1.00;;;;;;;;;;5046083;28;20041;-56
2021/09/22 07:54:45;;;;;;;2.03;0.60;;;;;;;;;;5049933;28;20045;-56
2021/09/22 07:57:11;;;;;;;2.78;0.50;;;;;;;;;;5047839;28;20090;-56
2021/09/22 07:59:37;;;;;;;1.90;0.55;;;;;;;;;;5046449;28;20033;-55
2021/09/22 08:02:03;;;;;;;2.13;0.60;;;;;;;;;;5049722;28;20127;-56
2021/09/22 08:04:29;;;;;;;2.10;0.60;;;;;;;;;;5048507;28;20053;-56
2021/09/22 08:06:58;;;;;;;2.40;0.60;;;;;;;;;;5046218;28;20041;-56
2021/09/22 08:09:24;;;;;;;2.20;0.57;;;;;;;;;;5046787;28;20044;-56
2021/09/22 08:11:50;;;;;;;2.05;0.50;;;;;;;;;;5048963;28;20464;-54
2021/09/22 08:14:16;;;;;;;3.88;0.80;;;;;;;;;;5049406;28;20045;-55
2021/09/22 08:16:44;;;;;;;4.13;0.80;;;;;;;;;;5047609;28;20044;-56
2021/09/22 08:19:10;;;;;;;3.63;0.70;;;;;;;;;;5048697;28;20061;-56
2021/09/22 08:21:36;;;;;;;2.45;0.70;;;;;;;;;;5045957;28;20136;-56
2021/09/22 08:24:02;;;;;;;3.00;0.80;;;;;;;;;;5049718;28;20798;-54
2021/09/22 08:26:28;;;;;;;3.38;0.90;;;;;;;;;;5046024;28;20036;-55
2021/09/22 08:28:54;;;;;;;1.95;0.60;;;;;;;;;;5047433;28;20025;-55
2021/09/22 08:31:20;;;;;;;5.13;0.90;;;;;;;;;;5048241;28;20091;-55
2021/09/22 08:33:46;;;;;;;3.65;0.70;;;;;;;;;;5048451;28;20072;-54
2021/09/22 08:36:12;;;;;;;2.42;0.60;;;;;;;;;;5047903;28;20056;-54
2021/09/22 08:38:38;;;;;;;2.10;0.63;;;;;;;;;;5047446;28;20048;-56
2021/09/22 08:41:03;;;;;;;2.30;0.77;;;;;;;;;;5047347;28;20029;-55
2021/09/22 08:43:30;;;;;;;1.90;0.60;;;;;;;;;;5046754;28;20061;-54
2021/09/22 08:45:56;;;;;;;2.47;0.80;;;;;;;;;;5047188;28;20036;-56
2021/09/22 08:48:24;;;;;;;3.67;0.65;;;;;;;;;;5047298;28;20047;-56
2021/09/22 08:50:50;;;;;;;3.20;0.73;;;;;;;;;;5033240;28;20033;-53
2021/09/22 08:53:16;;;;;;;2.35;0.73;;;;;;;;;;5047329;28;20406;-56
2021/09/22 08:55:42;;;;;;;3.58;0.80;;;;;;;;;;5047248;28;20043;-55
2021/09/22 08:58:08;;;;;;;3.97;0.90;;;;;;;;;;5047704;28;20055;-56
2021/09/22 09:00:34;;;;;;;4.20;0.82;;;;;;;;;;5047373;28;20554;-55
2021/09/22 09:03:00;;;;;;;1.92;0.60;;;;;;;;;;5046827;28;20055;-55
2021/09/22 09:05:26;;;;;;;2.42;0.70;;;;;;;;;;5045900;28;20032;-56
2021/09/22 09:07:54;;;;;;;2.72;0.70;;;;;;;;;;5047414;28;20151;-55
2021/09/22 09:10:22;;;;;;;3.80;0.90;;;;;;;;;;5048070;28;20042;-55
2021/09/22 09:12:57;;;;;;;3.50;0.80;;;;;;;;;;5048923;28;20048;-55
2021/09/22 09:15:29;;;;;;;3.03;0.80;;;;;;;;;;5046452;28;20373;-53
2021/09/22 09:17:59;;;;;;;2.67;0.68;;;;;;;;;;5046958;28;20040;-54
2021/09/22 09:20:25;;;;;;;2.75;0.80;;;;;;;;;;5046191;28;20048;-56
2021/09/22 09:23:00;;;;;;;2.45;0.75;;;;;;;;;;5046549;28;20041;-55
2021/09/22 09:25:27;;;;;;;3.50;0.95;;;;;;;;;;5046608;28;20076;-55
2021/09/22 09:27:53;;;;;;;3.05;0.90;;;;;;;;;;5049206;28;20033;-56
2021/09/22 09:30:20;;;;;;;2.20;0.70;;;;;;;;;;5047647;28;20077;-55
2021/09/22 09:32:46;;;;;;;2.65;0.77;;;;;;;;;;5046766;28;20056;-54
2021/09/22 09:35:14;;;;;;;2.50;0.80;;;;;;;;;;5047434;28;20090;-55
2021/09/22 09:37:44;;;;;;;2.75;0.70;;;;;;;;;;5045705;28;20566;-54
2021/09/22 09:40:15;;;;;;;2.67;0.80;;;;;;;;;;5047083;28;20033;-56
2021/09/22 09:42:42;;;;;;;2.55;0.80;;;;;;;;;;5046854;28;20059;-55
2021/09/22 09:45:08;;;;;;;3.03;0.80;;;;;;;;;;5048267;28;20040;-55
2021/09/22 09:47:34;;;;;;;5.70;0.70;;;;;;;;;;5046224;28;20888;-55
2021/09/22 09:50:20;;;;;;;2.40;0.80;;;;;;;;;;5047302;28;20033;-55
2021/09/22 09:52:52;;;;;;;4.18;0.68;;;;;;;;;;5046411;28;20049;-53
2021/09/22 09:55:19;;;;;;;3.00;0.73;;;;;;;;;;5045210;28;20051;-55
2021/09/22 09:57:48;;;;;;;1.95;0.60;;;;;;;;;;5050758;28;20040;-54
2021/09/22 10:00:15;;;;;;;4.18;0.70;;;;;;;;;;5050908;28;20396;-53
2021/09/22 10:02:41;;;;;;;1.58;0.60;;;;;;;;;;5050887;28;20122;-55
2021/09/22 10:05:07;;;;;;;2.10;0.70;;;;;;;;;;5050233;28;20091;-54
2021/09/22 10:07:36;;;;;;;2.05;0.60;;;;;;;;;;5050183;28;20150;-55
2021/09/22 10:10:06;;;;;;;4.25;0.63;;;;;;;;;;5051090;28;20037;-55
2021/09/22 10:12:32;;;;;;;3.35;0.75;;;;;;;;;;5051519;28;20048;-54
2021/09/22 10:15:00;;;;;;;1.67;0.60;;;;;;;;;;5051066;28;20044;-55
2021/09/22 10:17:29;;;;;;;1.40;0.50;;;;;;;;;;5048772;28;20517;-54
2021/09/22 10:19:57;;;;;;;3.25;0.80;;;;;;;;;;5050142;28;20033;-52
2021/09/22 10:22:23;;;;;;;1.77;0.60;;;;;;;;;;5051428;28;20037;-54
2021/09/22 10:24:49;;;;;;;2.92;0.80;;;;;;;;;;5050555;28;20090;-56
2021/09/22 10:27:16;;;;;;;6.82;0.80;;;;;;;;;;5049436;28;20116;-55
2021/09/22 10:29:57;;;;;;;3.22;0.63;;;;;;;;;;5049478;28;20061;-55
2021/09/22 10:32:37;;;;;;;1.90;0.52;;;;;;;;;;5048342;28;20049;-55
2021/09/22 10:35:23;;;;;;;2.80;0.82;;;;;;;;;;5049364;28;20040;-55
2021/09/22 10:37:49;;;;;;;1.45;0.50;;;;;;;;;;4990301;28;20137;-55
2021/09/22 10:40:19;;;;;;;1.88;0.60;;;;;;;;;;5050769;28;20082;-55
2021/09/22 10:42:45;;;;;;;2.67;0.52;;;;;;;;;;5050071;28;20055;-56
2021/09/22 10:45:16;;;;;;;4.20;0.70;;;;;;;;;;5048128;28;20055;-56
2021/09/22 10:47:42;;;;;;;1.73;0.52;;;;;;;;;;5049030;28;20572;-56
2021/09/22 10:50:09;;;;;;;1.50;0.60;;;;;;;;;;5047005;28;20128;-55
2021/09/22 10:52:37;;;;;;;6.50;0.63;;;;;;;;;;5047550;28;20147;-56
2021/09/22 10:55:10;;;;;;;2.75;0.60;;;;;;;;;;5048071;28;20027;-56
2021/09/22 10:57:37;;;;;;;2.13;0.60;;;;;;;;;;5028093;28;20052;-56
2021/09/22 11:00:21;;;;;;;2.70;0.90;;;;;;;;;;5048087;28;20032;-54
2021/09/22 11:02:49;;;;;;;1.85;0.50;;;;;;;;;;5047249;28;20044;-55
2021/09/22 11:05:27;;;;;;;1.52;0.50;;;;;;;;;;5047365;28;20473;-56
2021/09/22 11:07:56;;;;;;;1.70;0.50;;;;;;;;;;5046889;28;20055;-55
2021/09/22 11:10:34;;;;;;;1.90;0.60;;;;;;;;;;5047425;28;20040;-55
2021/09/22 11:13:18;;;;;;;1.75;0.50;;;;;;;;;;5048966;28;20055;-53
2021/09/22 11:15:45;;;;;;;2.15;0.63;;;;;;;;;;5046063;28;20453;-57
2021/09/22 11:18:11;;;;;;;4.85;0.75;;;;;;;;;;5048301;28;20043;-55
2021/09/22 11:20:37;;;;;;;1.88;0.70;;;;;;;;;;5039838;28;20424;-56
2021/09/22 11:23:06;;;;;;;1.83;0.60;;;;;;;;;;5050024;28;20044;-53
2021/09/22 11:25:32;;;;;;;2.30;0.60;;;;;;;;;;5046561;28;20044;-56
2021/09/22 11:28:04;;;;;;;3.10;0.80;;;;;;;;;;5045613;28;20617;-55
2021/09/22 11:30:30;;;;;;;1.95;0.70;;;;;;;;;;5047157;28;20102;-55
2021/09/22 11:32:56;;;;;;;2.10;0.60;;;;;;;;;;5048516;28;20170;-54
2021/09/22 11:35:22;;;;;;;2.92;0.75;;;;;;;;;;5047791;28;20582;-55
2021/09/22 11:37:52;;;;;;;2.72;0.88;;;;;;;;;;5045647;28;20036;-55
2021/09/22 11:40:20;;;;;;;1.95;0.60;;;;;;;;;;5046769;28;20049;-56
2021/09/22 11:42:55;;;;;;;3.53;0.70;;;;;;;;;;5048121;28;20049;-55
2021/09/22 11:45:35;;;;;;;2.67;0.88;;;;;;;;;;5047878;28;20043;-55
2021/09/22 11:48:01;;;;;;;4.43;0.60;;;;;;;;;;5047608;28;20156;-55
2021/09/22 11:50:31;;;;;;;3.42;0.90;;;;;;;;;;5047583;28;20033;-55
2021/09/22 11:52:58;;;;;;;2.05;0.70;;;;;;;;;;5049588;28;20514;-55
2021/09/22 11:55:24;;;;;;;8.48;0.77;;;;;;;;;;5048254;28;20516;-54
2021/09/22 11:57:49;;;;;;;2.60;0.63;;;;;;;;;;5029537;28;20049;-56
2021/09/22 12:00:16;;;;;;;4.82;0.90;;;;;;;;;;5046223;28;20127;-55
2021/09/22 12:02:42;;;;;;;2.50;0.63;;;;;;;;;;5046006;28;20041;-51
2021/09/22 12:05:12;;;;;;;2.83;0.77;;;;;;;;;;5046556;28;20061;-53
2021/09/22 12:07:38;;;;;;;2.17;0.60;;;;;;;;;;5045724;28;20045;-55
2021/09/22 12:10:04;;;;;;;1.55;0.50;;;;;;;;;;5048601;28;20040;-55
2021/09/22 12:12:33;;;;;;;1.25;0.40;;;;;;;;;;5046523;28;20045;-54
2021/09/22 12:14:59;;;;;;;2.40;0.70;;;;;;;;;;5047785;28;20185;-55
2021/09/22 12:17:29;;;;;;;8.45;0.70;;;;;;;;;;5046418;28;20431;-54
2021/09/22 12:19:56;;;;;;;2.47;0.85;;;;;;;;;;5049121;28;20041;-55
2021/09/22 12:22:24;;;;;;;2.35;0.60;;;;;;;;;;5048901;28;20516;-54
2021/09/22 12:24:50;;;;;;;3.67;0.80;;;;;;;;;;5050066;28;20063;-54
2021/09/22 12:27:17;;;;;;;1.85;0.60;;;;;;;;;;5047036;28;20063;-55
2021/09/22 12:29:50;;;;;;;2.17;0.75;;;;;;;;;;5046324;28;20056;-55
2021/09/22 12:32:16;;;;;;;1.67;0.47;;;;;;;;;;5047526;28;20092;-55
2021/09/22 12:34:43;;;;;;;2.70;0.70;;;;;;;;;;5033191;28;20700;-54
2021/09/22 12:37:35;;;;;;;1.98;0.60;;;;;;;;;;5046281;28;20131;-55
2021/09/22 12:40:05;;;;;;;1.63;0.43;;;;;;;;;;5042069;28;20037;-55
2021/09/22 12:42:42;;;;;;;1.63;0.60;;;;;;;;;;5037317;28;20044;-55
2021/09/22 12:45:12;;;;;;;1.70;0.60;;;;;;;;;;5047101;28;20048;-56
2021/09/22 12:47:48;;;;;;;3.53;0.70;;;;;;;;;;5045689;28;20053;-53
2021/09/22 12:50:23;;;;;;;1.85;0.60;;;;;;;;;;5047125;28;20086;-54
2021/09/22 12:52:49;;;;;;;2.40;0.57;;;;;;;;;;5045836;28;20122;-54
2021/09/22 12:55:20;;;;;;;2.38;0.57;;;;;;;;;;5047570;28;20056;-55
2021/09/22 12:57:50;;;;;;;1.73;0.57;;;;;;;;;;5028574;28;20576;-55
2021/09/22 13:00:26;;;;;;;2.13;0.60;;;;;;;;;;5049425;28;20449;-56
2021/09/22 13:03:05;;;;;;;2.20;0.63;;;;;;;;;;5047884;28;20044;-55
2021/09/22 13:05:35;;;;;;;3.97;0.70;;;;;;;;;;5047621;28;20047;-55
2021/09/22 13:08:01;;;;;;;5.93;0.73;;;;;;;;;;5046740;28;20120;-55
2021/09/22 13:10:27;;;;;;;2.90;0.60;;;;;;;;;;5047637;28;20497;-55
2021/09/22 13:12:54;;;;;;;2.53;0.47;;;;;;;;;;5047148;28;20604;-55
2021/09/22 13:15:27;;;;;;;5.88;0.60;;;;;;;;;;5046440;28;20036;-55
2021/09/22 13:17:52;;;;;;;;;;;;;;;;;;5046624;28;20068;-54
2021/09/22 13:20:18;;;;;;;2.90;0.60;;;;;;;;;;5045606;28;20016;-52
2021/09/22 13:22:44;;;;;;;2.95;0.55;;;;;;;;;;5047566;28;20090;-55
2021/09/22 13:25:10;;;;;;;5.68;0.93;;;;;;;;;;5045393;28;20068;-55
2021/09/22 13:27:36;;;;;;;2.97;0.80;;;;;;;;;;5045496;28;20047;-55
2021/09/22 13:30:02;;;;;;;3.15;0.70;;;;;;;;;;5047562;28;20037;-56
2021/09/22 13:32:28;;;;;;;2.58;0.68;;;;;;;;;;5051137;28;20060;-55
2021/09/22 13:34:55;;;;;;;2.50;0.45;;;;;;;;;;5054000;28;20033;-55
2021/09/22 13:37:21;;;;;;;4.45;0.60;;;;;;;;;;5051453;28;20044;-53
2021/09/22 13:39:47;;;;;;;2.22;0.60;;;;;;;;;;5051745;28;20428;-54
2021/09/22 13:42:13;;;;;;;2.30;0.60;;;;;;;;;;5044913;28;20050;-56
2021/09/22 13:44:38;;;;;;;2.25;0.63;;;;;;;;;;5034855;28;20091;-55
2021/09/22 13:47:04;;;;;;;1.75;0.52;;;;;;;;;;5034570;28;20036;-54
2021/09/22 13:49:32;;;;;;;2.05;0.70;;;;;;;;;;5035021;28;20037;-56
2021/09/22 13:51:58;;;;;;;2.03;0.60;;;;;;;;;;5036388;28;20022;-56
2021/09/22 13:54:24;;;;;;;3.33;0.63;;;;;;;;;;5036683;28;20933;-54
2021/09/22 13:56:50;;;;;;;3.53;0.70;;;;;;;;;;5032749;28;20060;-56
2021/09/22 13:59:16;;;;;;;3.95;0.70;;;;;;;;;;5036864;28;20512;-55
2021/09/22 14:01:42;;;;;;;1.65;0.45;;;;;;;;;;5035210;28;20041;-55
2021/09/22 14:04:08;;;;;;;3.05;0.70;;;;;;;;;;5038738;28;21262;-55
2021/09/22 14:06:34;;;;;;;0.80;0.50;;;;;;;;;;5016790;28;20025;-55
2021/09/22 14:09:00;;;;;;;2.05;0.60;;;;;;;;;;5033720;28;20045;-55
2021/09/22 14:11:26;;;;;;;2.70;0.70;;;;;;;;;;5036314;28;20069;-53
2021/09/22 14:13:51;;;;;;;3.28;0.70;;;;;;;;;;5034979;28;20139;-57
2021/09/22 14:16:17;;;;;;;2.03;0.57;;;;;;;;;;5034763;28;20041;-57
2021/09/22 14:18:43;;;;;;;7.50;0.80;;;;;;;;;;5034719;28;20048;-56
2021/09/22 14:21:09;;;;;;;7.43;0.88;;;;;;;;;;5034680;28;20041;-56
2021/09/22 14:23:35;;;;;;;4.20;0.70;;;;;;;;;;5033882;28;20043;-55
2021/09/22 14:26:00;;;;;;;3.33;0.65;;;;;;;;;;5034249;28;20036;-54
2021/09/22 14:28:26;;;;;;;2.30;0.70;;;;;;;;;;5035765;28;20048;-53
2021/09/22 14:30:53;;;;;;;2.13;0.63;;;;;;;;;;5036360;28;20790;-56
2021/09/22 14:33:19;;;;;;;3.15;0.70;;;;;;;;;;5034356;28;20073;-56
2021/09/22 14:35:45;;;;;;;2.70;0.68;;;;;;;;;;5034215;28;20053;-56
2021/09/22 14:38:12;;;;;;;2.72;0.63;;;;;;;;;;5035758;28;20036;-55
2021/09/22 14:40:39;;;;;;;3.67;0.70;;;;;;;;;;5034017;28;20064;-56
2021/09/22 14:43:05;;;;;;;4.65;0.85;;;;;;;;;;5033907;28;20041;-56